Time;durP1;ratioP1;P1;durP2;ratioP2;P2;SDS_P1;SDS_P2;PMS_P1;PMS_P2;Temp;Humidity;BMP_temperature;BMP_pressure;BME280_temperature;BME280_humidity;BME280_pressure;Samples;Min_cycle;Max_cycle;Signal;HPM_P1;HPM_P2
2023/08/12 00:00:33;;;;;;;9.07;6.53;;;;;;;;;;5029924;28;20064;-60
2023/08/12 00:02:59;;;;;;;10.75;6.82;;;;;;;;;;5024638;28;20057;-60
2023/08/12 00:05:25;;;;;;;8.20;6.25;;;;;;;;;;5023869;28;20123;-60
2023/08/12 00:07:51;;;;;;;7.97;6.40;;;;;;;;;;5025831;28;20050;-60
2023/08/12 00:10:17;;;;;;;7.50;5.93;;;;;;;;;;5031983;28;20056;-60
2023/08/12 00:12:44;;;;;;;8.93;6.43;;;;;;;;;;5022941;28;20417;-60
2023/08/12 00:15:10;;;;;;;8.60;6.30;;;;;;;;;;5024735;28;20034;-60
2023/08/12 00:17:37;;;;;;;9.80;6.40;;;;;;;;;;5018271;28;20056;-60
2023/08/12 00:20:10;;;;;;;9.93;6.68;;;;;;;;;;5029911;28;20041;-60
2023/08/12 00:22:37;;;;;;;7.53;6.10;;;;;;;;;;5027292;28;20117;-60
2023/08/12 00:25:04;;;;;;;9.32;6.35;;;;;;;;;;5029028;28;20029;-60
2023/08/12 00:27:30;;;;;;;9.68;6.90;;;;;;;;;;5027015;28;20061;-60
2023/08/12 00:29:56;;;;;;;8.88;6.45;;;;;;;;;;5030046;28;20436;-60
2023/08/12 00:32:22;;;;;;;10.15;7.55;;;;;;;;;;5023565;28;20054;-60
2023/08/12 00:34:49;;;;;;;11.88;7.07;;;;;;;;;;5029555;28;20036;-60
2023/08/12 00:37:15;;;;;;;9.88;7.20;;;;;;;;;;5025185;28;20052;-60
2023/08/12 00:39:41;;;;;;;13.80;7.03;;;;;;;;;;5005533;28;20156;-60
2023/08/12 00:42:07;;;;;;;11.55;6.65;;;;;;;;;;5022024;28;20380;-60
2023/08/12 00:44:34;;;;;;;9.45;6.82;;;;;;;;;;5023113;28;20404;-60
2023/08/12 00:47:01;;;;;;;10.55;6.47;;;;;;;;;;5024447;28;20592;-60
2023/08/12 00:49:27;;;;;;;9.73;6.40;;;;;;;;;;5023683;28;20037;-60
2023/08/12 00:51:54;;;;;;;8.60;6.47;;;;;;;;;;5023073;28;20045;-60
2023/08/12 00:54:23;;;;;;;10.57;6.37;;;;;;;;;;5023234;28;20547;-60
2023/08/12 00:56:50;;;;;;;14.52;6.60;;;;;;;;;;5024684;28;20423;-60
2023/08/12 00:59:17;;;;;;;8.93;6.13;;;;;;;;;;5025012;28;20516;-60
2023/08/12 01:01:45;;;;;;;9.27;6.50;;;;;;;;;;5023561;28;20060;-60
2023/08/12 01:04:12;;;;;;;8.95;6.68;;;;;;;;;;5019299;28;20053;-60
2023/08/12 01:06:38;;;;;;;9.70;6.35;;;;;;;;;;5023840;28;20045;-60
2023/08/12 01:09:06;;;;;;;9.45;6.78;;;;;;;;;;5027054;28;20033;-60
2023/08/12 01:11:39;;;;;;;10.63;6.70;;;;;;;;;;5019981;28;20053;-60
2023/08/12 01:14:43;;;;;;;11.50;6.80;;;;;;;;;;5022276;28;20045;-59
2023/08/12 01:17:13;;;;;;;11.65;6.70;;;;;;;;;;5024324;28;20049;-60
2023/08/12 01:19:39;;;;;;;;;;;;;;;;;;5023057;28;20068;-60
2023/08/12 01:22:10;;;;;;;7.97;6.43;;;;;;;;;;5007479;28;19966;-60
2023/08/12 01:24:39;;;;;;;11.45;7.15;;;;;;;;;;5025100;28;20041;-61
2023/08/12 01:27:06;;;;;;;8.65;6.90;;;;;;;;;;5027822;28;20389;-60
2023/08/12 01:29:34;;;;;;;11.70;6.53;;;;;;;;;;5023613;28;20052;-59
2023/08/12 01:32:23;;;;;;;10.98;7.07;;;;;;;;;;5021464;28;20045;-59
2023/08/12 01:35:09;;;;;;;7.88;6.28;;;;;;;;;;5026356;28;20532;-60
2023/08/12 01:37:37;;;;;;;9.90;7.18;;;;;;;;;;5022208;28;20048;-60
2023/08/12 01:40:04;;;;;;;9.98;7.05;;;;;;;;;;5022780;28;20416;-60
2023/08/12 01:42:35;;;;;;;9.75;7.30;;;;;;;;;;5020095;28;20545;-60
2023/08/12 01:45:02;;;;;;;8.57;6.38;;;;;;;;;;5020954;28;20054;-58
2023/08/12 01:47:30;;;;;;;8.85;6.53;;;;;;;;;;5021640;28;20048;-59
2023/08/12 01:49:56;;;;;;;10.80;6.72;;;;;;;;;;5023092;28;20056;-59
2023/08/12 01:52:24;;;;;;;8.90;6.90;;;;;;;;;;5023030;28;20097;-58
2023/08/12 01:54:50;;;;;;;9.38;6.93;;;;;;;;;;5018971;28;20389;-59
2023/08/12 01:57:17;;;;;;;10.27;7.05;;;;;;;;;;5022538;28;20071;-57
2023/08/12 01:59:46;;;;;;;13.68;7.35;;;;;;;;;;5019410;28;20045;-59
2023/08/12 02:02:12;;;;;;;11.25;6.93;;;;;;;;;;5027521;28;20048;-60
2023/08/12 02:04:40;;;;;;;9.65;6.35;;;;;;;;;;5024575;28;20041;-60
2023/08/12 02:07:06;;;;;;;12.32;7.15;;;;;;;;;;5019489;28;20038;-60
2023/08/12 02:09:32;;;;;;;8.90;7.00;;;;;;;;;;5021144;28;20381;-60
2023/08/12 02:11:58;;;;;;;11.07;6.95;;;;;;;;;;5026647;28;20046;-60
2023/08/12 02:14:24;;;;;;;9.75;6.65;;;;;;;;;;5005476;28;20517;-60
2023/08/12 02:16:51;;;;;;;10.15;6.78;;;;;;;;;;5026177;28;20029;-60
2023/08/12 02:19:17;;;;;;;11.20;6.82;;;;;;;;;;5024492;28;20034;-60
2023/08/12 02:21:43;;;;;;;11.70;7.35;;;;;;;;;;5025752;28;20425;-60
2023/08/12 02:24:10;;;;;;;10.00;6.63;;;;;;;;;;5027338;28;20040;-59
2023/08/12 02:26:38;;;;;;;12.10;6.82;;;;;;;;;;5026741;28;20037;-59
2023/08/12 02:29:04;;;;;;;10.55;7.47;;;;;;;;;;5026403;28;20033;-59
2023/08/12 02:31:30;;;;;;;10.63;6.82;;;;;;;;;;5026802;28;20060;-59
2023/08/12 02:33:56;;;;;;;10.45;6.97;;;;;;;;;;5021708;28;20068;-60
2023/08/12 02:36:25;;;;;;;9.35;6.72;;;;;;;;;;5044473;28;20038;-61
2023/08/12 02:38:51;;;;;;;9.50;7.35;;;;;;;;;;5016091;28;20440;-60
2023/08/12 02:41:17;;;;;;;9.35;7.10;;;;;;;;;;5020317;28;20040;-59
2023/08/12 02:43:43;;;;;;;10.60;7.07;;;;;;;;;;5017166;28;20053;-60
2023/08/12 02:46:09;;;;;;;13.77;7.10;;;;;;;;;;5022800;28;20038;-59
2023/08/12 02:48:36;;;;;;;9.80;7.05;;;;;;;;;;5020190;28;20036;-60
2023/08/12 02:51:02;;;;;;;11.23;7.13;;;;;;;;;;5018160;28;20041;-60
2023/08/12 02:53:28;;;;;;;12.20;6.57;;;;;;;;;;5025207;28;20064;-60
2023/08/12 02:55:54;;;;;;;11.07;7.05;;;;;;;;;;5025998;28;20040;-60
2023/08/12 02:58:20;;;;;;;9.65;6.72;;;;;;;;;;5019022;28;20042;-60
2023/08/12 03:00:46;;;;;;;15.10;8.13;;;;;;;;;;5018868;28;20420;-60
2023/08/12 03:03:13;;;;;;;10.55;7.35;;;;;;;;;;5023285;28;20049;-60
2023/08/12 03:05:39;;;;;;;9.27;6.45;;;;;;;;;;5019511;28;20089;-60
2023/08/12 03:08:06;;;;;;;10.57;7.10;;;;;;;;;;4985595;28;20056;-60
2023/08/12 03:10:36;;;;;;;12.85;6.90;;;;;;;;;;5027442;28;20050;-60
2023/08/12 03:13:02;;;;;;;10.35;7.75;;;;;;;;;;5025707;28;20057;-60
2023/08/12 03:15:28;;;;;;;12.32;7.95;;;;;;;;;;5018218;28;20049;-60
2023/08/12 03:17:56;;;;;;;11.60;7.47;;;;;;;;;;5015264;28;20041;-60
2023/08/12 03:20:23;;;;;;;10.30;6.90;;;;;;;;;;5026475;28;20033;-59
2023/08/12 03:22:50;;;;;;;12.50;7.45;;;;;;;;;;5023338;28;20049;-60
2023/08/12 03:25:16;;;;;;;11.90;7.53;;;;;;;;;;5023142;28;20034;-59
2023/08/12 03:27:44;;;;;;;10.07;7.25;;;;;;;;;;5023350;28;20067;-60
2023/08/12 03:30:10;;;;;;;10.98;7.95;;;;;;;;;;5023259;28;20037;-60
2023/08/12 03:32:36;;;;;;;12.60;7.60;;;;;;;;;;5022682;28;20037;-59
2023/08/12 03:35:03;;;;;;;10.80;7.80;;;;;;;;;;5019361;28;20385;-60
2023/08/12 03:37:30;;;;;;;9.77;7.10;;;;;;;;;;5042116;28;20429;-60
2023/08/12 03:39:56;;;;;;;10.70;7.20;;;;;;;;;;5013378;28;20033;-60
2023/08/12 03:42:22;;;;;;;10.25;7.43;;;;;;;;;;5010693;28;20049;-60
2023/08/12 03:44:49;;;;;;;13.20;7.53;;;;;;;;;;5018292;28;20060;-59
2023/08/12 03:47:21;;;;;;;11.27;7.78;;;;;;;;;;5023439;28;20053;-60
2023/08/12 03:49:47;;;;;;;13.32;8.48;;;;;;;;;;5016470;28;20050;-60
2023/08/12 03:52:14;;;;;;;12.70;8.05;;;;;;;;;;5025956;28;20516;-60
2023/08/12 03:54:40;;;;;;;11.48;8.35;;;;;;;;;;5019058;28;20042;-59
2023/08/12 03:57:06;;;;;;;10.93;7.85;;;;;;;;;;5021264;28;20489;-60
2023/08/12 03:59:33;;;;;;;16.35;8.48;;;;;;;;;;5017926;28;20049;-60
2023/08/12 04:01:59;;;;;;;10.60;8.70;;;;;;;;;;5018010;28;20026;-60
2023/08/12 04:04:27;;;;;;;12.98;8.45;;;;;;;;;;5023418;28;20033;-59
2023/08/12 04:06:53;;;;;;;13.93;8.63;;;;;;;;;;5023114;28;20046;-60
2023/08/12 04:09:19;;;;;;;20.15;11.55;;;;;;;;;;5024305;28;20046;-60
2023/08/12 04:11:46;;;;;;;22.55;12.00;;;;;;;;;;5026608;28;20041;-60
2023/08/12 04:14:13;;;;;;;15.93;9.45;;;;;;;;;;5024250;28;20052;-60
2023/08/12 04:16:39;;;;;;;14.25;8.77;;;;;;;;;;5024152;28;20767;-59
2023/08/12 04:19:05;;;;;;;10.90;8.13;;;;;;;;;;5027867;28;20401;-60
2023/08/12 04:21:32;;;;;;;11.73;8.80;;;;;;;;;;5026897;28;20041;-60
2023/08/12 04:23:58;;;;;;;12.25;8.40;;;;;;;;;;5028386;28;20041;-60
2023/08/12 04:26:25;;;;;;;11.02;8.20;;;;;;;;;;5021053;28;20042;-60
2023/08/12 04:28:52;;;;;;;10.77;8.20;;;;;;;;;;5026090;28;20048;-60
2023/08/12 04:31:18;;;;;;;12.82;8.23;;;;;;;;;;5026481;28;20056;-59
2023/08/12 04:33:44;;;;;;;11.88;7.93;;;;;;;;;;5023652;28;20424;-60
2023/08/12 04:36:11;;;;;;;13.13;8.63;;;;;;;;;;5022254;28;20034;-60
2023/08/12 04:38:39;;;;;;;11.23;8.40;;;;;;;;;;5022737;28;20034;-60
2023/08/12 04:41:07;;;;;;;;;;;;;;;;;;5025177;28;20033;-60
2023/08/12 04:43:33;;;;;;;15.27;9.15;;;;;;;;;;5004992;28;19923;-60
2023/08/12 04:45:59;;;;;;;11.90;8.70;;;;;;;;;;5047114;28;20125;-60
2023/08/12 04:48:25;;;;;;;18.80;9.35;;;;;;;;;;5023703;28;20042;-59
2023/08/12 04:50:51;;;;;;;11.65;8.13;;;;;;;;;;5026116;28;20049;-60
2023/08/12 04:53:18;;;;;;;12.45;8.77;;;;;;;;;;5025554;28;20041;-60
2023/08/12 04:55:44;;;;;;;11.52;8.10;;;;;;;;;;5024952;28;20108;-60
2023/08/12 04:58:10;;;;;;;14.88;9.23;;;;;;;;;;5019975;28;20045;-60
2023/08/12 05:00:37;;;;;;;15.23;9.20;;;;;;;;;;5025704;28;20042;-60
2023/08/12 05:03:04;;;;;;;12.48;9.35;;;;;;;;;;5025137;28;20052;-60
2023/08/12 05:05:30;;;;;;;13.65;8.73;;;;;;;;;;5022319;28;20517;-60
2023/08/12 05:07:56;;;;;;;16.10;9.05;;;;;;;;;;5024511;28;20417;-60
2023/08/12 05:10:23;;;;;;;12.40;9.05;;;;;;;;;;5018470;28;20053;-60
2023/08/12 05:12:52;;;;;;;12.35;8.73;;;;;;;;;;5021213;28;20599;-60
2023/08/12 05:15:18;;;;;;;12.68;8.68;;;;;;;;;;5023390;28;20506;-60
2023/08/12 05:17:44;;;;;;;18.08;10.73;;;;;;;;;;5025710;28;20512;-60
2023/08/12 05:20:12;;;;;;;17.63;9.43;;;;;;;;;;5028317;28;20046;-59
2023/08/12 05:22:39;;;;;;;11.85;8.93;;;;;;;;;;5024991;28;20053;-60
2023/08/12 05:25:05;;;;;;;12.95;8.95;;;;;;;;;;5011728;28;20382;-60
2023/08/12 05:27:31;;;;;;;13.93;8.55;;;;;;;;;;5027542;28;20057;-60
2023/08/12 05:29:58;;;;;;;12.68;8.00;;;;;;;;;;5023748;28;20462;-60
2023/08/12 05:32:24;;;;;;;14.65;8.38;;;;;;;;;;5024768;28;20041;-60
2023/08/12 05:34:52;;;;;;;14.45;9.68;;;;;;;;;;5020927;28;20528;-59
2023/08/12 05:37:18;;;;;;;19.63;9.20;;;;;;;;;;5023293;28;20033;-60
2023/08/12 05:39:44;;;;;;;11.98;8.43;;;;;;;;;;5024094;28;20041;-60
2023/08/12 05:42:10;;;;;;;12.70;8.63;;;;;;;;;;5023975;28;20049;-60
2023/08/12 05:44:36;;;;;;;12.05;8.02;;;;;;;;;;5017993;28;20416;-60
2023/08/12 05:47:03;;;;;;;11.30;8.43;;;;;;;;;;5022555;28;20037;-60
2023/08/12 05:49:29;;;;;;;15.57;8.80;;;;;;;;;;5026078;28;20033;-60
2023/08/12 05:51:55;;;;;;;11.13;8.38;;;;;;;;;;5025984;28;20032;-59
2023/08/12 05:54:21;;;;;;;13.82;8.98;;;;;;;;;;5023491;28;20037;-60
2023/08/12 05:56:47;;;;;;;13.77;9.23;;;;;;;;;;5023304;28;20042;-60
2023/08/12 05:59:13;;;;;;;13.15;8.75;;;;;;;;;;5027328;28;20485;-60
2023/08/12 06:01:39;;;;;;;13.15;9.00;;;;;;;;;;5026706;28;20056;-59
2023/08/12 06:04:05;;;;;;;11.75;8.52;;;;;;;;;;5027792;28;20445;-60
2023/08/12 06:06:32;;;;;;;12.57;8.38;;;;;;;;;;5022318;28;20393;-59
2023/08/12 06:08:58;;;;;;;13.23;8.70;;;;;;;;;;5026037;28;20080;-60
2023/08/12 06:11:24;;;;;;;11.35;8.57;;;;;;;;;;5024081;28;20034;-59
2023/08/12 06:13:50;;;;;;;15.68;10.00;;;;;;;;;;5025324;28;20053;-59
2023/08/12 06:16:16;;;;;;;14.13;9.13;;;;;;;;;;5025412;28;20042;-59
2023/08/12 06:18:43;;;;;;;13.95;8.90;;;;;;;;;;5021567;28;20037;-60
2023/08/12 06:21:09;;;;;;;14.73;9.20;;;;;;;;;;5024785;28;20497;-60
2023/08/12 06:23:35;;;;;;;11.38;8.57;;;;;;;;;;5021370;28;20045;-60
2023/08/12 06:26:01;;;;;;;13.40;9.50;;;;;;;;;;5024916;28;20097;-61
2023/08/12 06:28:27;;;;;;;14.85;9.23;;;;;;;;;;5016242;28;20049;-60
2023/08/12 06:30:53;;;;;;;13.35;9.27;;;;;;;;;;5025118;28;20049;-61
2023/08/12 06:33:19;;;;;;;12.30;8.90;;;;;;;;;;5022382;28;20148;-61
2023/08/12 06:35:45;;;;;;;14.05;9.10;;;;;;;;;;5022260;28;20049;-61
2023/08/12 06:38:13;;;;;;;13.95;9.93;;;;;;;;;;5021859;28;20049;-60
2023/08/12 06:40:39;;;;;;;13.82;9.30;;;;;;;;;;5024960;28;20474;-59
2023/08/12 06:43:07;;;;;;;14.90;9.02;;;;;;;;;;5021521;28;20056;-60
2023/08/12 06:45:33;;;;;;;13.52;9.55;;;;;;;;;;5024751;28;20049;-61
2023/08/12 06:47:59;;;;;;;12.10;8.35;;;;;;;;;;5023790;28;20029;-61
2023/08/12 06:50:25;;;;;;;13.82;9.30;;;;;;;;;;5024258;28;20045;-61
2023/08/12 06:52:51;;;;;;;13.68;8.38;;;;;;;;;;5025879;28;20052;-60
2023/08/12 06:55:17;;;;;;;17.25;8.75;;;;;;;;;;5029902;28;20056;-61
2023/08/12 06:57:43;;;;;;;13.50;8.27;;;;;;;;;;5026161;28;20052;-61
2023/08/12 07:00:10;;;;;;;13.15;8.57;;;;;;;;;;5026582;28;20052;-60
2023/08/12 07:02:36;;;;;;;12.25;8.50;;;;;;;;;;5018936;28;20477;-61
2023/08/12 07:05:02;;;;;;;10.93;8.13;;;;;;;;;;5023369;28;20026;-61
2023/08/12 07:07:28;;;;;;;10.73;8.68;;;;;;;;;;5024144;28;20054;-61
2023/08/12 07:09:55;;;;;;;14.73;9.05;;;;;;;;;;5019286;28;20048;-61
2023/08/12 07:12:21;;;;;;;14.73;9.48;;;;;;;;;;5015354;28;20475;-61
2023/08/12 07:14:47;;;;;;;10.95;8.32;;;;;;;;;;5026852;28;20037;-61
2023/08/12 07:17:13;;;;;;;12.27;8.20;;;;;;;;;;5024893;28;20033;-61
2023/08/12 07:19:39;;;;;;;12.73;7.90;;;;;;;;;;5022702;28;20421;-59
2023/08/12 07:22:05;;;;;;;11.02;8.10;;;;;;;;;;5026537;28;20578;-59
2023/08/12 07:24:31;;;;;;;12.38;7.93;;;;;;;;;;5023148;28;20401;-59
2023/08/12 07:26:57;;;;;;;16.00;8.00;;;;;;;;;;5024146;28;20045;-61
2023/08/12 07:29:23;;;;;;;11.15;8.48;;;;;;;;;;5022009;28;20041;-60
2023/08/12 07:31:49;;;;;;;14.10;8.80;;;;;;;;;;5023657;28;20052;-60
2023/08/12 07:34:15;;;;;;;15.52;9.00;;;;;;;;;;5022375;28;20424;-59
2023/08/12 07:36:42;;;;;;;15.65;8.43;;;;;;;;;;5019824;28;20049;-61
2023/08/12 07:39:08;;;;;;;11.15;8.18;;;;;;;;;;5019849;28;20038;-60
2023/08/12 07:41:34;;;;;;;13.20;7.72;;;;;;;;;;5020200;28;20342;-60
2023/08/12 07:44:00;;;;;;;9.93;6.95;;;;;;;;;;5026668;28;20037;-60
2023/08/12 07:46:28;;;;;;;9.60;6.97;;;;;;;;;;5024411;28;20032;-61
2023/08/12 07:48:54;;;;;;;12.27;7.97;;;;;;;;;;5029433;28;20040;-60
2023/08/12 07:51:20;;;;;;;12.60;8.50;;;;;;;;;;5028265;28;20049;-60
2023/08/12 07:53:46;;;;;;;12.18;8.15;;;;;;;;;;5028021;28;20037;-60
2023/08/12 07:56:12;;;;;;;10.95;8.35;;;;;;;;;;5026620;28;20535;-59
2023/08/12 07:58:38;;;;;;;11.30;8.45;;;;;;;;;;5027222;28;20060;-60
2023/08/12 08:01:04;;;;;;;9.65;7.80;;;;;;;;;;5025353;28;20052;-60
2023/08/12 08:03:31;;;;;;;11.63;8.45;;;;;;;;;;5023027;28;20038;-59
2023/08/12 08:05:57;;;;;;;9.90;8.27;;;;;;;;;;5030931;28;20044;-59
2023/08/12 08:08:23;;;;;;;10.52;8.25;;;;;;;;;;5026087;28;20050;-60
2023/08/12 08:10:49;;;;;;;11.15;8.18;;;;;;;;;;5025369;28;20052;-59
2023/08/12 08:13:15;;;;;;;13.98;8.15;;;;;;;;;;5008863;28;20038;-60
2023/08/12 08:15:41;;;;;;;13.02;8.40;;;;;;;;;;5029314;28;20041;-60
2023/08/12 08:18:07;;;;;;;14.55;7.68;;;;;;;;;;5022641;28;20052;-60
2023/08/12 08:20:34;;;;;;;11.10;7.85;;;;;;;;;;5022881;28;20041;-61
2023/08/12 08:23:00;;;;;;;12.02;7.78;;;;;;;;;;5026300;28;20412;-60
2023/08/12 08:25:26;;;;;;;12.63;9.20;;;;;;;;;;5026815;28;20044;-60
2023/08/12 08:27:53;;;;;;;12.20;8.18;;;;;;;;;;5022547;28;20060;-60
2023/08/12 08:30:19;;;;;;;10.73;8.23;;;;;;;;;;5023353;28;20038;-60
2023/08/12 08:32:46;;;;;;;14.00;7.70;;;;;;;;;;5021627;28;20104;-60
2023/08/12 08:35:12;;;;;;;10.23;7.30;;;;;;;;;;5023028;28;20053;-60
2023/08/12 08:37:38;;;;;;;13.65;7.25;;;;;;;;;;5023036;28;20138;-60
2023/08/12 08:40:05;;;;;;;11.73;6.07;;;;;;;;;;5023949;28;20050;-60
2023/08/12 08:42:32;;;;;;;10.15;6.88;;;;;;;;;;5016808;28;20048;-60
2023/08/12 08:45:01;;;;;;;8.45;6.30;;;;;;;;;;5017333;28;20053;-60
2023/08/12 08:47:28;;;;;;;11.57;6.95;;;;;;;;;;5025116;28;20048;-60
2023/08/12 08:49:56;;;;;;;9.10;6.78;;;;;;;;;;5025660;28;20493;-60
2023/08/12 08:52:25;;;;;;;9.55;6.18;;;;;;;;;;5024585;28;20045;-60
2023/08/12 08:54:52;;;;;;;8.45;5.72;;;;;;;;;;5022657;28;20041;-60
2023/08/12 08:57:21;;;;;;;13.60;9.40;;;;;;;;;;5027171;28;20032;-61
2023/08/12 08:59:48;;;;;;;6.82;5.70;;;;;;;;;;5022807;28;20037;-60
2023/08/12 09:02:17;;;;;;;6.55;5.47;;;;;;;;;;5020568;28;20042;-60
2023/08/12 09:04:44;;;;;;;5.93;4.72;;;;;;;;;;5021756;28;20429;-60
2023/08/12 09:07:11;;;;;;;9.00;4.80;;;;;;;;;;5025118;28;20046;-60
2023/08/12 09:09:39;;;;;;;8.57;5.13;;;;;;;;;;5026252;28;20040;-59
2023/08/12 09:12:06;;;;;;;6.90;4.40;;;;;;;;;;5025526;28;20042;-60
2023/08/12 09:14:33;;;;;;;6.97;4.75;;;;;;;;;;5026368;28;20048;-61
2023/08/12 09:17:00;;;;;;;6.70;4.60;;;;;;;;;;5026107;28;20029;-60
2023/08/12 09:19:26;;;;;;;5.82;4.57;;;;;;;;;;5019109;28;20034;-60
2023/08/12 09:21:54;;;;;;;7.95;4.82;;;;;;;;;;5020537;28;20828;-60
2023/08/12 09:24:27;;;;;;;6.27;4.67;;;;;;;;;;5024799;28;20041;-60
2023/08/12 09:26:55;;;;;;;6.60;4.78;;;;;;;;;;5017245;28;20048;-60
2023/08/12 09:29:29;;;;;;;5.30;4.28;;;;;;;;;;5016129;28;20501;-60
2023/08/12 09:32:05;;;;;;;5.70;4.82;;;;;;;;;;5018042;28;20525;-61
2023/08/12 09:34:31;;;;;;;8.82;4.63;;;;;;;;;;5015812;28;20052;-59
2023/08/12 09:36:58;;;;;;;5.68;4.85;;;;;;;;;;5020364;28;20069;-60
2023/08/12 09:39:24;;;;;;;6.70;5.10;;;;;;;;;;5022240;28;20413;-63
2023/08/12 09:41:51;;;;;;;8.55;4.90;;;;;;;;;;5024113;28;20033;-60
2023/08/12 09:44:17;;;;;;;6.72;4.97;;;;;;;;;;5019982;28;20029;-60
2023/08/12 09:46:43;;;;;;;9.60;5.75;;;;;;;;;;5021999;28;20064;-60
2023/08/12 09:49:09;;;;;;;8.30;5.65;;;;;;;;;;5021400;28;20509;-61
2023/08/12 09:51:36;;;;;;;8.40;6.15;;;;;;;;;;5026452;28;20037;-60
2023/08/12 09:54:03;;;;;;;9.88;7.00;;;;;;;;;;5025275;28;20049;-61
2023/08/12 09:56:35;;;;;;;7.55;4.95;;;;;;;;;;5029028;28;20041;-60
2023/08/12 09:59:05;;;;;;;6.95;4.90;;;;;;;;;;5024284;28;20030;-60
2023/08/12 10:01:31;;;;;;;6.82;4.80;;;;;;;;;;5018679;28;20041;-61
2023/08/12 10:03:57;;;;;;;8.23;5.00;;;;;;;;;;5023292;28;20064;-59
2023/08/12 10:06:24;;;;;;;6.38;4.68;;;;;;;;;;5024421;28;20038;-60
2023/08/12 10:08:51;;;;;;;8.25;5.43;;;;;;;;;;5018073;28;20480;-60
2023/08/12 10:11:17;;;;;;;7.65;5.80;;;;;;;;;;5026921;28;20060;-61
2023/08/12 10:13:43;;;;;;;5.55;4.88;;;;;;;;;;5014087;28;20616;-60
2023/08/12 10:16:10;;;;;;;7.18;4.63;;;;;;;;;;5024937;28;20535;-60
2023/08/12 10:18:38;;;;;;;7.40;4.55;;;;;;;;;;5017638;28;20049;-60
2023/08/12 10:21:08;;;;;;;6.40;4.75;;;;;;;;;;5016310;28;20058;-60
2023/08/12 10:23:34;;;;;;;6.10;4.70;;;;;;;;;;5021724;28;20045;-60
2023/08/12 10:26:02;;;;;;;6.30;4.50;;;;;;;;;;5020212;28;20041;-61
2023/08/12 10:28:31;;;;;;;6.10;4.50;;;;;;;;;;5016588;28;20461;-61
2023/08/12 10:30:57;;;;;;;8.15;5.10;;;;;;;;;;5022534;28;20045;-62
2023/08/12 10:33:23;;;;;;;9.70;6.00;;;;;;;;;;5022372;28;20519;-61
2023/08/12 10:35:49;;;;;;;8.65;6.28;;;;;;;;;;5021081;28;20060;-60
2023/08/12 10:38:20;;;;;;;14.23;6.63;;;;;;;;;;5016756;28;20029;-60
2023/08/12 10:40:47;;;;;;;9.07;5.18;;;;;;;;;;5020789;28;20141;-61
2023/08/12 10:43:14;;;;;;;9.95;4.53;;;;;;;;;;5023153;28;20033;-61
2023/08/12 10:45:49;;;;;;;8.93;4.68;;;;;;;;;;5021005;28;20452;-61
2023/08/12 10:48:24;;;;;;;8.95;5.63;;;;;;;;;;5023339;28;20049;-61
2023/08/12 10:50:59;;;;;;;7.13;4.53;;;;;;;;;;5019678;28;20038;-62
2023/08/12 10:53:29;;;;;;;8.95;4.63;;;;;;;;;;5020496;28;20053;-60
2023/08/12 10:56:00;;;;;;;7.03;4.20;;;;;;;;;;5024362;28;20053;-61
2023/08/12 10:58:27;;;;;;;7.10;4.07;;;;;;;;;;5015164;28;20026;-60
2023/08/12 11:00:55;;;;;;;7.20;4.65;;;;;;;;;;5022484;28;20080;-61
2023/08/12 11:03:22;;;;;;;7.50;4.55;;;;;;;;;;5024323;28;20133;-61
2023/08/12 11:05:48;;;;;;;6.40;4.70;;;;;;;;;;5022141;28;20041;-60
2023/08/12 11:08:14;;;;;;;6.03;4.72;;;;;;;;;;5019801;28;20034;-60
2023/08/12 11:10:43;;;;;;;6.45;4.20;;;;;;;;;;5022691;28;20060;-60
2023/08/12 11:13:09;;;;;;;6.40;4.47;;;;;;;;;;5023759;28;20052;-62
2023/08/12 11:15:42;;;;;;;8.00;4.50;;;;;;;;;;5024070;28;20408;-59
2023/08/12 11:18:19;;;;;;;6.45;4.25;;;;;;;;;;5024649;28;20033;-59
2023/08/12 11:20:47;;;;;;;6.90;4.15;;;;;;;;;;5024744;28;20053;-59
2023/08/12 11:23:14;;;;;;;6.15;4.32;;;;;;;;;;5023495;28;20070;-59
2023/08/12 11:25:43;;;;;;;7.53;4.22;;;;;;;;;;5020410;28;20049;-59
2023/08/12 11:28:10;;;;;;;8.32;5.35;;;;;;;;;;5022502;28;20033;-60
2023/08/12 11:30:36;;;;;;;5.60;4.32;;;;;;;;;;5021288;28;20048;-60
2023/08/12 11:33:03;;;;;;;7.18;4.30;;;;;;;;;;5018545;28;20037;-59
2023/08/12 11:35:29;;;;;;;8.38;4.47;;;;;;;;;;5020659;28;20037;-59
2023/08/12 11:37:57;;;;;;;5.72;3.65;;;;;;;;;;5022218;28;20530;-60
2023/08/12 11:40:24;;;;;;;8.70;3.78;;;;;;;;;;5022830;28;20112;-60
2023/08/12 11:42:52;;;;;;;5.53;3.80;;;;;;;;;;5019284;28;20053;-59
2023/08/12 11:45:24;;;;;;;5.75;3.28;;;;;;;;;;5021755;28;20413;-59
2023/08/12 11:47:53;;;;;;;7.97;3.53;;;;;;;;;;5023116;28;20072;-59
2023/08/12 11:50:22;;;;;;;4.20;3.60;;;;;;;;;;5022807;28;20037;-62
2023/08/12 11:52:48;;;;;;;;;;;;;;;;;;5021709;28;20066;-62
2023/08/12 11:55:15;;;;;;;4.82;3.08;;;;;;;;;;5016372;28;20285;-60
2023/08/12 11:57:43;;;;;;;6.32;2.63;;;;;;;;;;5010025;28;20494;-62
2023/08/12 12:00:13;;;;;;;5.07;2.65;;;;;;;;;;5026978;28;20041;-62
2023/08/12 12:02:45;;;;;;;3.47;2.50;;;;;;;;;;5017853;28;20037;-60
2023/08/12 12:05:11;;;;;;;4.38;2.53;;;;;;;;;;5017098;28;20038;-61
2023/08/12 12:07:38;;;;;;;3.40;2.42;;;;;;;;;;5023014;28;20508;-60
2023/08/12 12:10:05;;;;;;;3.15;2.10;;;;;;;;;;5027196;28;20044;-59
2023/08/12 12:12:35;;;;;;;3.38;2.40;;;;;;;;;;5024484;28;20048;-59
2023/08/12 12:15:03;;;;;;;6.10;2.88;;;;;;;;;;5024164;28;20034;-61
2023/08/12 12:17:29;;;;;;;2.95;2.50;;;;;;;;;;5022906;28;20140;-62
2023/08/12 12:19:57;;;;;;;5.63;2.70;;;;;;;;;;5023710;28;20044;-60
2023/08/12 12:22:28;;;;;;;4.65;2.20;;;;;;;;;;5019471;28;20663;-61
2023/08/12 12:24:54;;;;;;;5.63;2.65;;;;;;;;;;5016553;28;20738;-62
2023/08/12 12:27:20;;;;;;;4.05;2.55;;;;;;;;;;5020986;28;20049;-61
2023/08/12 12:29:46;;;;;;;3.88;2.55;;;;;;;;;;5020764;28;20053;-62
2023/08/12 12:32:12;;;;;;;5.47;2.53;;;;;;;;;;5023179;28;20060;-59
2023/08/12 12:34:38;;;;;;;6.38;3.10;;;;;;;;;;5024005;28;20033;-60
2023/08/12 12:37:04;;;;;;;7.30;4.68;;;;;;;;;;5026166;28;20113;-61
2023/08/12 12:39:31;;;;;;;4.78;3.03;;;;;;;;;;5007866;28;20142;-62
2023/08/12 12:41:59;;;;;;;5.25;3.60;;;;;;;;;;5025614;28;20041;-60
2023/08/12 12:44:25;;;;;;;5.20;3.05;;;;;;;;;;5016641;28;20056;-61
2023/08/12 12:46:51;;;;;;;6.63;3.20;;;;;;;;;;5020061;28;20041;-63
2023/08/12 12:49:18;;;;;;;6.00;3.00;;;;;;;;;;5028428;28;20042;-60
2023/08/12 12:51:44;;;;;;;8.15;3.60;;;;;;;;;;5027178;28;20497;-61
2023/08/12 12:54:10;;;;;;;5.85;3.60;;;;;;;;;;5021273;28;20034;-60
2023/08/12 12:56:36;;;;;;;6.25;3.45;;;;;;;;;;5026457;28;20038;-60
2023/08/12 12:59:02;;;;;;;5.20;3.42;;;;;;;;;;5025783;28;20052;-61
2023/08/12 13:01:28;;;;;;;8.57;3.33;;;;;;;;;;5018974;28;20432;-61
2023/08/12 13:03:54;;;;;;;6.55;3.55;;;;;;;;;;5023293;28;20056;-61
2023/08/12 13:06:20;;;;;;;6.95;3.70;;;;;;;;;;5024382;28;20497;-61
2023/08/12 13:08:46;;;;;;;7.70;3.80;;;;;;;;;;5028505;28;20054;-60
2023/08/12 13:11:12;;;;;;;6.55;3.70;;;;;;;;;;5028972;28;20104;-59
2023/08/12 13:13:38;;;;;;;8.73;4.60;;;;;;;;;;5022605;28;20517;-61
2023/08/12 13:16:05;;;;;;;4.65;3.60;;;;;;;;;;5026805;28;20086;-62
2023/08/12 13:18:31;;;;;;;6.43;4.10;;;;;;;;;;5025697;28;20458;-62
2023/08/12 13:20:57;;;;;;;7.72;4.10;;;;;;;;;;5008621;28;20041;-61
2023/08/12 13:23:23;;;;;;;7.93;5.47;;;;;;;;;;5021729;28;20433;-59
2023/08/12 13:25:49;;;;;;;5.70;4.22;;;;;;;;;;5024227;28;20037;-61
2023/08/12 13:28:15;;;;;;;9.73;4.22;;;;;;;;;;5023983;28;20048;-61
2023/08/12 13:30:41;;;;;;;7.38;4.32;;;;;;;;;;5021985;28;20034;-59
2023/08/12 13:33:08;;;;;;;8.63;4.10;;;;;;;;;;5023925;28;20048;-59
2023/08/12 13:35:34;;;;;;;10.30;4.13;;;;;;;;;;5024115;28;20049;-60
2023/08/12 13:38:00;;;;;;;8.70;4.40;;;;;;;;;;5021560;28;20075;-61
2023/08/12 13:40:27;;;;;;;10.70;6.15;;;;;;;;;;5024840;28;20045;-59
2023/08/12 13:42:53;;;;;;;10.35;5.80;;;;;;;;;;5023070;28;20398;-61
2023/08/12 13:45:19;;;;;;;7.40;4.90;;;;;;;;;;5020053;28;20038;-60
2023/08/12 13:47:45;;;;;;;9.60;4.57;;;;;;;;;;5024416;28;20568;-62
2023/08/12 13:50:13;;;;;;;7.28;4.47;;;;;;;;;;5032118;28;20037;-59
2023/08/12 13:52:40;;;;;;;7.43;4.68;;;;;;;;;;5023014;28;22527;-60
2023/08/12 13:55:06;;;;;;;7.43;4.75;;;;;;;;;;5028904;28;20045;-60
2023/08/12 13:57:32;;;;;;;6.25;4.72;;;;;;;;;;5020882;28;20034;-60
2023/08/12 13:59:59;;;;;;;8.13;5.32;;;;;;;;;;5025858;28;20048;-60
2023/08/12 14:02:25;;;;;;;8.20;5.28;;;;;;;;;;5017025;28;20054;-60
2023/08/12 14:04:51;;;;;;;8.45;4.80;;;;;;;;;;5021930;28;20231;-60
2023/08/12 14:07:20;;;;;;;6.25;4.88;;;;;;;;;;5026488;28;20048;-60
2023/08/12 14:09:46;;;;;;;8.68;5.18;;;;;;;;;;5027562;28;20037;-60
2023/08/12 14:12:12;;;;;;;11.25;5.63;;;;;;;;;;5021444;28;20061;-60
2023/08/12 14:14:40;;;;;;;11.38;5.90;;;;;;;;;;5024122;28;20057;-61
2023/08/12 14:17:06;;;;;;;8.90;4.82;;;;;;;;;;5025753;28;20061;-59
2023/08/12 14:19:32;;;;;;;8.30;4.43;;;;;;;;;;5025537;28;20037;-60
2023/08/12 14:21:58;;;;;;;6.40;3.80;;;;;;;;;;5023504;28;20400;-62
2023/08/12 14:24:24;;;;;;;8.68;4.05;;;;;;;;;;5020716;28;20192;-59
2023/08/12 14:26:50;;;;;;;5.82;3.80;;;;;;;;;;5024310;28;20037;-58
2023/08/12 14:29:16;;;;;;;6.68;3.55;;;;;;;;;;5023392;28;20049;-59
2023/08/12 14:31:42;;;;;;;6.78;3.92;;;;;;;;;;5022347;28;20045;-59
2023/08/12 14:34:08;;;;;;;7.55;3.90;;;;;;;;;;5023332;28;20060;-60
2023/08/12 14:36:36;;;;;;;4.68;3.70;;;;;;;;;;5022145;28;20064;-59